createdAt,value
2018-02-08T00:00:42.271Z,53.72
2018-02-08T00:03:10.632Z,53.74
2018-02-08T00:05:39.048Z,54.86
2018-02-08T00:08:07.406Z,54.46
2018-02-08T00:10:35.782Z,54.35
2018-02-08T00:13:04.157Z,54.54
2018-02-08T00:15:32.565Z,54.05
2018-02-08T00:18:00.929Z,54.08
2018-02-08T00:20:29.324Z,54.70
2018-02-08T00:22:57.694Z,54.94
2018-02-08T00:25:26.084Z,54.06
2018-02-08T00:27:54.450Z,53.41
2018-02-08T00:30:22.813Z,54.03
2018-02-08T00:32:51.177Z,54.91
2018-02-08T00:35:19.557Z,54.00
2018-02-08T00:37:48.344Z,54.88
2018-02-08T00:40:16.718Z,54.37
2018-02-08T00:42:45.076Z,53.55
2018-02-08T00:45:13.934Z,53.35
2018-02-08T00:47:42.404Z,53.90
2018-02-08T00:50:10.797Z,53.36
2018-02-08T00:52:39.156Z,53.10
2018-02-08T00:55:07.572Z,52.92
2018-02-08T00:57:35.930Z,53.01
2018-02-08T01:00:04.292Z,53.36
2018-02-08T01:02:32.660Z,52.79
2018-02-08T01:05:01.020Z,53.00
2018-02-08T01:07:29.397Z,53.04
2018-02-08T01:09:57.760Z,53.69
2018-02-08T01:12:26.554Z,53.28
2018-02-08T01:14:55.313Z,52.99
2018-02-08T01:17:23.671Z,52.98
2018-02-08T01:19:52.033Z,53.72
2018-02-08T01:22:20.404Z,53.41
2018-02-08T01:24:48.812Z,52.80
2018-02-08T01:27:17.174Z,53.06
2018-02-08T01:29:45.535Z,52.65
2018-02-08T01:32:13.910Z,53.10
2018-02-08T01:34:42.320Z,53.06
2018-02-08T01:37:10.822Z,53.06
2018-02-08T01:39:39.187Z,52.95
2018-02-08T01:42:07.590Z,53.39
2018-02-08T01:44:35.948Z,53.71
2018-02-08T01:47:04.320Z,54.15
2018-02-08T01:49:45.430Z,53.49
2018-02-08T01:52:13.809Z,53.30
2018-02-08T01:54:42.579Z,53.31
2018-02-08T01:57:10.954Z,53.90
2018-02-08T01:59:39.437Z,54.88
2018-02-08T02:02:08.018Z,54.13
2018-02-08T02:04:36.412Z,53.46
2018-02-08T02:07:04.864Z,52.75
2018-02-08T02:09:33.377Z,52.67
2018-02-08T02:12:01.859Z,52.66
2018-02-08T02:14:30.197Z,52.34
2018-02-08T02:16:58.582Z,52.39
2018-02-08T02:19:26.947Z,51.44
2018-02-08T02:21:55.380Z,51.26
2018-02-08T02:24:24.212Z,51.61
2018-02-08T02:26:52.728Z,51.18
2018-02-08T02:29:21.103Z,52.41
2018-02-08T02:31:49.895Z,52.35
2018-02-08T02:34:18.254Z,51.84
2018-02-08T02:36:46.622Z,51.44
2018-02-08T02:39:14.985Z,52.07
2018-02-08T02:41:43.365Z,51.83
2018-02-08T02:44:11.737Z,52.09
2018-02-08T02:46:40.106Z,52.71
2018-02-08T02:49:08.544Z,52.29
2018-02-08T02:51:36.924Z,52.15
2018-02-08T02:54:05.282Z,51.43
2018-02-08T02:56:33.661Z,50.96
2018-02-08T02:59:02.066Z,51.06
2018-02-08T03:01:30.432Z,51.30
2018-02-08T03:03:58.799Z,51.61
2018-02-08T03:06:27.185Z,51.10
2018-02-08T03:08:55.571Z,50.90
2018-02-08T03:11:23.947Z,50.97
2018-02-08T03:13:52.344Z,51.10
2018-02-08T03:16:20.701Z,51.26
2018-02-08T03:18:49.091Z,50.90
2018-02-08T03:21:17.566Z,50.80
2018-02-08T03:23:45.927Z,51.01
2018-02-08T03:26:14.366Z,51.28
2018-02-08T03:28:43.135Z,52.41
2018-02-08T03:31:12.371Z,52.71
2018-02-08T03:33:40.741Z,52.25
2018-02-08T03:36:09.121Z,51.85
2018-02-08T03:38:37.510Z,50.78
2018-02-08T03:41:05.880Z,51.39
2018-02-08T03:43:34.244Z,50.65
2018-02-08T03:46:03.110Z,50.48
2018-02-08T03:48:31.477Z,50.65
2018-02-08T03:50:59.856Z,50.20
2018-02-08T03:53:28.335Z,49.12
2018-02-08T03:55:56.707Z,50.16
2018-02-08T03:58:25.076Z,49.59
2018-02-08T04:00:53.449Z,49.01
2018-02-08T04:03:21.842Z,48.95
2018-02-08T04:05:50.277Z,48.90
2018-02-08T04:08:19.027Z,48.92
2018-02-08T04:10:47.406Z,48.66
2018-02-08T04:13:15.778Z,48.68
2018-02-08T04:15:44.156Z,48.63
2018-02-08T04:18:12.526Z,48.22
2018-02-08T04:20:40.908Z,47.90
2018-02-08T04:23:09.277Z,48.06
2018-02-08T04:25:37.651Z,47.47
2018-02-08T04:28:06.012Z,47.38
2018-02-08T04:30:34.433Z,47.81
2018-02-08T04:33:02.811Z,48.38
2018-02-08T04:35:31.271Z,48.04
2018-02-08T04:37:59.627Z,47.98
2018-02-08T04:43:54.709Z,47.77
2018-02-08T04:46:40.883Z,48.55
2018-02-08T04:49:09.263Z,48.33
2018-02-08T04:51:37.675Z,48.17
2018-02-08T04:54:06.439Z,47.98
2018-02-08T04:56:34.814Z,47.63
2018-02-08T04:59:03.298Z,47.94
2018-02-08T05:01:31.675Z,48.07
2018-02-08T05:04:00.055Z,48.35
2018-02-08T05:06:28.539Z,48.61
2018-02-08T05:08:56.980Z,49.03
2018-02-08T05:11:25.353Z,49.47
2018-02-08T05:13:53.716Z,49.55
2018-02-08T05:16:22.179Z,49.96
2018-02-08T05:18:51.034Z,49.43
2018-02-08T05:21:19.403Z,49.02
2018-02-08T05:23:47.774Z,49.71
2018-02-08T05:26:16.276Z,50.04
2018-02-08T05:28:44.657Z,50.58
2018-02-08T05:31:13.019Z,50.15
2018-02-08T05:33:41.382Z,49.85
2018-02-08T05:36:09.760Z,50.05
2018-02-08T05:38:38.173Z,50.02
2018-02-08T05:41:06.665Z,50.04
2018-02-08T05:43:35.238Z,49.91
2018-02-08T05:46:03.722Z,49.96
2018-02-08T05:48:32.188Z,49.78
2018-02-08T05:51:00.565Z,50.39
2018-02-08T05:53:29.008Z,50.01
2018-02-08T05:55:57.440Z,50.46
2018-02-08T05:58:25.800Z,50.42
2018-02-08T06:00:54.197Z,50.48
2018-02-08T06:03:22.579Z,50.58
2018-02-08T06:05:50.964Z,50.56
2018-02-08T06:08:19.320Z,50.70
2018-02-08T06:10:47.692Z,51.60
2018-02-08T06:13:16.055Z,51.06
2018-02-08T06:15:44.423Z,50.74
2018-02-08T06:18:12.784Z,50.99
2018-02-08T06:20:41.660Z,50.98
2018-02-08T06:23:10.060Z,51.86
2018-02-08T06:25:38.869Z,51.42
2018-02-08T06:28:07.231Z,51.32
2018-02-08T06:30:35.683Z,51.77
2018-02-08T06:33:04.146Z,51.79
2018-02-08T06:35:32.516Z,51.97
2018-02-08T06:38:00.880Z,51.18
2018-02-08T06:40:29.299Z,51.23
2018-02-08T06:42:57.759Z,51.02
2018-02-08T06:45:26.135Z,50.98
2018-02-08T06:47:54.511Z,50.40
2018-02-08T06:50:22.884Z,50.34
2018-02-08T06:52:51.253Z,50.66
2018-02-08T06:55:19.622Z,50.35
2018-02-08T06:57:48.027Z,50.34
2018-02-08T07:00:16.557Z,50.64
2018-02-08T07:02:45.333Z,50.86
2018-02-08T07:05:14.093Z,50.50
2018-02-08T07:07:42.443Z,50.13
2018-02-08T07:10:10.828Z,49.97
2018-02-08T07:12:39.244Z,48.78
2018-02-08T07:15:07.625Z,46.99
2018-02-08T07:17:35.980Z,44.44
2018-02-08T07:20:04.337Z,42.07
2018-02-08T07:22:32.732Z,41.05
2018-02-08T07:25:01.544Z,38.68
2018-02-08T07:27:29.900Z,36.51
2018-02-08T07:29:58.256Z,35.05
2018-02-08T07:32:26.611Z,34.29
2018-02-08T07:34:55.040Z,32.32
2018-02-08T07:37:23.468Z,32.79
2018-02-08T07:39:52.215Z,31.55
2018-02-08T07:42:20.620Z,30.52
2018-02-08T07:44:48.998Z,30.17
2018-02-08T07:47:17.373Z,30.25
2018-02-08T07:49:45.719Z,29.14
2018-02-08T07:52:14.088Z,29.71
2018-02-08T07:54:42.483Z,29.06
2018-02-08T07:57:10.864Z,29.61
2018-02-08T07:59:39.243Z,28.31
2018-02-08T08:02:07.611Z,29.14
2018-02-08T08:04:35.972Z,27.48
2018-02-08T08:07:04.392Z,26.68
2018-02-08T08:09:32.765Z,26.45
2018-02-08T08:12:01.241Z,26.43
2018-02-08T08:14:29.616Z,28.70
2018-02-08T08:16:57.988Z,27.56
2018-02-08T08:19:26.364Z,26.28
2018-02-08T08:21:54.728Z,25.38
2018-02-08T08:24:23.102Z,24.96
2018-02-08T08:26:51.476Z,26.58
2018-02-08T08:29:19.884Z,26.56
2018-02-08T08:31:48.270Z,25.82
2018-02-08T08:34:16.717Z,25.20
2018-02-08T08:36:45.171Z,25.19
2018-02-08T08:39:13.618Z,25.74
2018-02-08T08:41:42.067Z,27.21
2018-02-08T08:44:10.536Z,26.28
2018-02-08T08:46:38.990Z,25.81
2018-02-08T08:49:07.836Z,25.34
2018-02-08T08:51:36.389Z,25.31
2018-02-08T08:54:04.872Z,24.93
2018-02-08T08:56:33.321Z,25.61
2018-02-08T08:59:02.244Z,25.18
2018-02-08T09:01:30.701Z,24.32
2018-02-08T09:03:59.145Z,22.89
2018-02-08T09:06:27.597Z,21.67
2018-02-08T09:08:56.066Z,21.68
2018-02-08T09:11:24.511Z,21.89
2018-02-08T09:13:53.344Z,22.39
2018-02-08T09:16:21.818Z,23.90
2018-02-08T09:18:50.291Z,24.26
2018-02-08T09:21:18.746Z,23.47
2018-02-08T09:23:47.594Z,22.86
2018-02-08T09:26:16.043Z,21.69
2018-02-08T09:28:44.486Z,20.81
2018-02-08T09:31:16.792Z,22.36
2018-02-08T09:33:45.232Z,21.83
2018-02-08T09:36:14.089Z,21.50
2018-02-08T09:38:42.544Z,20.79
2018-02-08T09:41:11.001Z,20.57
2018-02-08T09:43:39.843Z,21.26
2018-02-08T09:46:08.287Z,21.26
2018-02-08T09:48:36.732Z,21.13
2018-02-08T09:51:05.176Z,21.77
2018-02-08T09:53:33.625Z,20.49
2018-02-08T09:56:02.155Z,20.05
2018-02-08T09:58:30.993Z,19.76
2018-02-08T10:00:59.502Z,20.45
2018-02-08T10:03:27.942Z,20.02
2018-02-08T10:05:56.805Z,20.28
2018-02-08T10:08:25.367Z,20.62
2018-02-08T10:10:53.852Z,19.83
2018-02-08T10:13:22.354Z,20.14
2018-02-08T10:15:50.826Z,20.15
2018-02-08T10:18:19.331Z,19.63
2018-02-08T10:20:47.804Z,19.13
2018-02-08T10:23:16.272Z,19.22
2018-02-08T10:25:44.777Z,18.72
2018-02-08T10:28:13.620Z,18.77
2018-02-08T10:30:42.080Z,18.61
2018-02-08T10:33:10.631Z,18.40
2018-02-08T10:35:39.166Z,18.25
2018-02-08T10:38:07.624Z,18.72
2018-02-08T10:40:36.089Z,19.20
2018-02-08T10:43:04.597Z,19.43
2018-02-08T10:45:33.086Z,19.52
2018-02-08T10:48:01.561Z,19.12
2018-02-08T10:50:30.067Z,19.51
2018-02-08T10:52:58.533Z,19.65
2018-02-08T10:55:26.972Z,19.46
2018-02-08T10:57:55.819Z,20.04
2018-02-08T11:00:24.371Z,19.39
2018-02-08T11:02:52.864Z,20.36
2018-02-08T11:05:21.331Z,20.39
2018-02-08T11:07:49.776Z,20.65
2018-02-08T11:10:18.276Z,20.65
2018-02-08T11:12:46.888Z,21.10
2018-02-08T11:15:15.348Z,20.46
2018-02-08T11:17:43.816Z,20.45
2018-02-08T11:20:12.341Z,21.02
2018-02-08T11:22:40.916Z,21.31
2018-02-08T11:25:09.367Z,21.40
2018-02-08T11:27:38.196Z,21.21
2018-02-08T11:30:06.639Z,21.69
2018-02-08T11:32:35.076Z,22.20
2018-02-08T11:35:03.627Z,22.88
2018-02-08T11:37:32.081Z,24.22
2018-02-08T11:40:00.523Z,24.50
2018-02-08T11:42:29.017Z,26.16
2018-02-08T11:44:57.499Z,27.01
2018-02-08T11:47:25.929Z,26.61
2018-02-08T11:49:54.357Z,26.92
2018-02-08T11:52:23.312Z,26.87
2018-02-08T11:54:51.739Z,27.19
2018-02-08T11:57:20.566Z,27.86
2018-02-08T11:59:49.080Z,29.09
2018-02-08T12:02:17.535Z,28.37
2018-02-08T12:04:45.981Z,28.45
2018-02-08T12:07:14.827Z,27.85
2018-02-08T12:09:43.259Z,28.05
2018-02-08T12:12:11.700Z,28.20
2018-02-08T12:14:40.160Z,28.07
2018-02-08T12:17:08.600Z,28.37
2018-02-08T12:19:37.100Z,28.06
2018-02-08T12:22:05.585Z,27.65
2018-02-08T12:24:34.068Z,27.92
2018-02-08T12:27:02.551Z,27.54
2018-02-08T12:29:31.089Z,27.92
2018-02-08T12:31:59.513Z,28.65
2018-02-08T12:34:28.000Z,28.61
2018-02-08T12:36:56.473Z,28.38
2018-02-08T12:39:24.920Z,28.98
2018-02-08T12:41:53.760Z,29.36
2018-02-08T12:44:22.239Z,29.55
2018-02-08T12:46:50.682Z,29.40
2018-02-08T12:49:19.208Z,29.26
2018-02-08T12:51:47.676Z,29.31
2018-02-08T12:54:16.203Z,29.36
2018-02-08T12:56:44.652Z,30.03
2018-02-08T12:59:13.169Z,29.94
2018-02-08T13:01:41.700Z,29.52
2018-02-08T13:04:10.183Z,29.58
2018-02-08T13:06:38.629Z,29.31
2018-02-08T13:09:07.555Z,30.16
2018-02-08T13:11:36.040Z,29.32
2018-02-08T13:14:04.514Z,29.49
2018-02-08T13:16:32.996Z,29.42
2018-02-08T13:19:01.505Z,29.64
2018-02-08T13:21:29.956Z,29.53
2018-02-08T13:23:58.442Z,29.82
2018-02-08T13:26:27.139Z,29.40
2018-02-08T13:28:55.605Z,29.78
2018-02-08T13:31:28.459Z,30.68
2018-02-08T13:33:57.297Z,30.39
2018-02-08T13:36:30.755Z,30.46
2018-02-08T13:38:59.408Z,30.30
2018-02-08T13:41:27.858Z,30.04
2018-02-08T13:43:56.312Z,29.81
2018-02-08T13:46:24.764Z,29.98
2018-02-08T13:52:23.588Z,30.21
2018-02-08T13:54:54.186Z,30.52
2018-02-08T14:00:39.088Z,30.94
2018-02-08T14:03:07.919Z,30.08
2018-02-08T14:05:36.355Z,30.29
2018-02-08T14:08:05.217Z,30.43
2018-02-08T14:10:33.668Z,30.43
2018-02-08T14:13:02.101Z,29.97
2018-02-08T14:15:30.546Z,30.50
2018-02-08T14:17:58.987Z,30.62
2018-02-08T14:20:27.633Z,30.54
2018-02-08T14:22:56.091Z,31.00
2018-02-08T14:25:24.585Z,30.97
2018-02-08T14:27:53.079Z,31.11
2018-02-08T14:30:21.624Z,32.07
2018-02-08T14:32:50.068Z,31.90
2018-02-08T14:35:18.936Z,31.36
2018-02-08T14:37:47.390Z,31.34
2018-02-08T14:40:15.845Z,31.38
2018-02-08T14:42:44.394Z,31.35
2018-02-08T14:45:13.233Z,31.26
2018-02-08T14:47:41.711Z,31.24
2018-02-08T14:50:10.195Z,31.49
2018-02-08T14:52:38.633Z,31.26
2018-02-08T14:55:07.468Z,31.35
2018-02-08T14:57:36.480Z,31.92
2018-02-08T15:00:04.910Z,31.98
2018-02-08T15:02:33.349Z,31.80
2018-02-08T15:05:01.815Z,31.81
2018-02-08T15:07:30.260Z,31.95
2018-02-08T15:09:58.763Z,32.37
2018-02-08T15:12:27.211Z,32.45
2018-02-08T15:14:55.793Z,32.84
2018-02-08T15:17:24.707Z,33.35
2018-02-08T15:19:53.180Z,33.29
2018-02-08T15:22:21.712Z,33.39
2018-02-08T15:24:50.256Z,33.45
2018-02-08T15:27:18.700Z,33.41
2018-02-08T15:29:47.669Z,33.39
2018-02-08T15:32:16.224Z,33.62
2018-02-08T15:34:44.695Z,34.11
2018-02-08T15:37:13.131Z,34.32
2018-02-08T15:39:41.969Z,34.48
2018-02-08T15:42:10.417Z,34.42
2018-02-08T15:44:38.864Z,34.26
2018-02-08T15:47:07.314Z,34.39
2018-02-08T15:49:35.790Z,35.24
2018-02-08T15:52:04.252Z,35.56
2018-02-08T15:54:32.696Z,35.11
2018-02-08T15:57:01.166Z,35.03
2018-02-08T15:59:29.620Z,35.33
2018-02-08T16:01:58.209Z,35.38
2018-02-08T16:04:26.672Z,35.55
2018-02-08T16:06:55.153Z,35.97
2018-02-08T16:09:23.658Z,35.92
2018-02-08T16:11:52.135Z,36.08
2018-02-08T16:14:20.600Z,36.51
2018-02-08T16:16:49.068Z,36.73
2018-02-08T16:19:17.512Z,36.55
2018-02-08T16:21:46.367Z,37.25
2018-02-08T16:24:14.923Z,37.02
2018-02-08T16:26:43.372Z,37.22
2018-02-08T16:29:12.226Z,37.51
2018-02-08T16:31:40.672Z,37.16
2018-02-08T16:34:09.111Z,37.76
2018-02-08T16:36:37.648Z,37.76
2018-02-08T16:39:06.117Z,37.66
2018-02-08T16:41:34.612Z,37.70
2018-02-08T16:44:03.075Z,37.91
2018-02-08T16:46:31.855Z,37.43
2018-02-08T16:49:00.305Z,37.37
2018-02-08T16:51:28.755Z,37.40
2018-02-08T16:53:57.215Z,37.74
2018-02-08T16:56:25.683Z,37.67
2018-02-08T16:58:54.120Z,37.79
2018-02-08T17:01:22.594Z,37.78
2018-02-08T17:03:51.035Z,38.20
2018-02-08T17:06:19.476Z,39.13
2018-02-08T17:08:48.961Z,38.99
2018-02-08T17:11:17.519Z,39.12
2018-02-08T17:13:45.954Z,39.21
2018-02-08T17:16:14.473Z,39.26
2018-02-08T17:18:42.961Z,39.32
2018-02-08T17:21:11.416Z,39.13
2018-02-08T17:23:39.860Z,40.29
2018-02-08T17:26:08.334Z,39.41
2018-02-08T17:28:36.791Z,39.57
2018-02-08T17:31:05.276Z,39.17
2018-02-08T17:33:33.719Z,39.20
2018-02-08T17:36:02.431Z,39.39
2018-02-08T17:38:30.872Z,39.57
2018-02-08T17:40:59.803Z,39.40
2018-02-08T17:43:28.256Z,39.41
2018-02-08T17:45:56.851Z,39.55
2018-02-08T17:48:25.283Z,39.63
2018-02-08T17:50:53.726Z,39.58
2018-02-08T17:53:22.184Z,39.53
2018-02-08T17:55:50.685Z,39.97
2018-02-08T17:58:19.157Z,40.11
2018-02-08T18:00:47.711Z,40.25
2018-02-08T18:03:16.566Z,40.16
2018-02-08T18:05:45.028Z,40.37
2018-02-08T18:08:13.478Z,40.27
2018-02-08T18:10:42.016Z,40.59
2018-02-08T18:13:10.463Z,40.71
2018-02-08T18:15:38.915Z,41.09
2018-02-08T18:18:07.426Z,41.47
2018-02-08T18:20:35.882Z,41.76
2018-02-08T18:23:04.389Z,41.46
2018-02-08T18:25:32.845Z,41.39
2018-02-08T18:28:01.285Z,41.42
2018-02-08T18:30:29.780Z,41.81
2018-02-08T18:32:58.631Z,41.87
2018-02-08T18:35:27.112Z,42.04
2018-02-08T18:37:55.568Z,41.96
2018-02-08T18:40:24.076Z,42.23
2018-02-08T18:42:52.556Z,42.51
2018-02-08T18:45:21.203Z,43.29
2018-02-08T18:47:49.721Z,43.17
2018-02-08T18:50:18.209Z,43.39
2018-02-08T18:52:46.661Z,42.84
2018-02-08T18:55:15.148Z,42.74
2018-02-08T18:57:43.575Z,42.58
2018-02-08T19:00:12.024Z,43.34
2018-02-08T19:02:40.543Z,42.76
2018-02-08T19:05:09.001Z,42.93
2018-02-08T19:07:37.489Z,42.65
2018-02-08T19:10:05.924Z,42.13
2018-02-08T19:12:34.380Z,41.34
2018-02-08T19:15:03.226Z,41.47
2018-02-08T19:17:31.686Z,41.96
2018-02-08T19:20:00.189Z,41.79
2018-02-08T19:22:28.634Z,41.75
2018-02-08T19:24:57.095Z,41.37
2018-02-08T19:27:25.982Z,41.38
2018-02-08T19:29:54.503Z,41.27
2018-02-08T19:32:22.946Z,41.38
2018-02-08T19:34:51.779Z,41.29
2018-02-08T19:37:20.284Z,41.36
2018-02-08T19:39:48.727Z,41.58
2018-02-08T19:42:17.198Z,41.84
2018-02-08T19:44:45.644Z,41.85
2018-02-08T19:47:14.190Z,42.10
2018-02-08T19:49:42.661Z,41.78
2018-02-08T19:52:11.137Z,41.87
2018-02-08T19:54:39.576Z,41.65
2018-02-08T19:57:08.516Z,41.78
2018-02-08T19:59:36.994Z,41.69
2018-02-08T20:02:05.472Z,41.86
2018-02-08T20:04:33.973Z,41.63
2018-02-08T20:07:02.457Z,41.99
2018-02-08T20:09:30.904Z,41.77
2018-02-08T20:11:59.353Z,41.75
2018-02-08T20:14:43.862Z,42.11
2018-02-08T20:17:12.373Z,42.20
2018-02-08T20:19:40.928Z,42.36
2018-02-08T20:22:09.397Z,42.11
2018-02-08T20:24:37.864Z,42.13
2018-02-08T20:27:06.442Z,41.90
2018-02-08T20:29:34.885Z,42.50
2018-02-08T20:32:03.356Z,42.76
2018-02-08T20:34:31.800Z,42.43
2018-02-08T20:37:01.171Z,42.68
2018-02-08T20:39:30.413Z,42.28
2018-02-08T20:41:58.940Z,42.83
2018-02-08T20:44:27.638Z,43.19
2018-02-08T20:46:56.125Z,43.50
2018-02-08T20:49:24.994Z,43.49
2018-02-08T20:51:53.524Z,43.67
2018-02-08T20:54:21.962Z,44.06
2018-02-08T20:56:50.681Z,44.25
2018-02-08T20:59:19.144Z,44.33
2018-02-08T21:01:47.641Z,44.58
2018-02-08T21:04:16.116Z,44.54
2018-02-08T21:06:44.639Z,44.36
2018-02-08T21:09:13.561Z,44.99
2018-02-08T21:11:42.555Z,44.64
2018-02-08T21:14:11.420Z,44.97
2018-02-08T21:16:39.907Z,45.16
2018-02-08T21:19:08.830Z,45.06
2018-02-08T21:21:37.784Z,45.32
2018-02-08T21:24:06.250Z,45.01
2018-02-08T21:26:34.705Z,45.24
2018-02-08T21:29:03.169Z,45.71
2018-02-08T21:31:32.020Z,45.93
2018-02-08T21:34:00.452Z,46.07
2018-02-08T21:36:28.980Z,45.89
2018-02-08T21:38:57.416Z,46.08
2018-02-08T21:41:25.891Z,46.58
2018-02-08T21:43:54.833Z,46.37
2018-02-08T21:46:23.317Z,46.24
2018-02-08T21:48:51.771Z,46.31
2018-02-08T21:51:20.260Z,46.58
2018-02-08T21:53:48.724Z,46.38
2018-02-08T21:56:17.196Z,46.80
2018-02-08T21:58:45.685Z,46.67
2018-02-08T22:01:14.431Z,46.68
2018-02-08T22:03:42.896Z,46.56
2018-02-08T22:06:11.376Z,46.33
2018-02-08T22:08:40.184Z,46.04
2018-02-08T22:11:08.638Z,46.48
2018-02-08T22:13:37.067Z,47.03
2018-02-08T22:16:05.951Z,46.53
2018-02-08T22:18:34.783Z,46.75
2018-02-08T22:21:03.228Z,46.50
2018-02-08T22:23:32.056Z,47.05
2018-02-08T22:26:00.533Z,46.59
2018-02-08T22:28:28.972Z,46.98
2018-02-08T22:30:57.901Z,46.80
2018-02-08T22:33:26.387Z,46.56
2018-02-08T22:35:54.883Z,46.26
2018-02-08T22:38:23.324Z,46.77
2018-02-08T22:40:52.488Z,46.60
2018-02-08T22:43:20.926Z,46.54
2018-02-08T22:45:49.384Z,46.72
2018-02-08T22:48:17.833Z,46.57
2018-02-08T22:50:46.364Z,47.13
2018-02-08T22:53:14.805Z,46.87
2018-02-08T22:55:43.740Z,46.70
2018-02-08T22:58:12.196Z,46.71
2018-02-08T23:00:40.652Z,47.09
2018-02-08T23:03:09.176Z,47.00
2018-02-08T23:05:37.767Z,47.18
2018-02-08T23:08:06.200Z,47.07
2018-02-08T23:10:34.658Z,46.61
2018-02-08T23:13:03.091Z,46.55
2018-02-08T23:15:31.540Z,46.76
2018-02-08T23:18:00.484Z,47.14
2018-02-08T23:20:29.065Z,47.80
2018-02-08T23:22:57.552Z,47.30
2018-02-08T23:25:25.996Z,47.46
2018-02-08T23:27:54.504Z,47.38
2018-02-08T23:30:22.940Z,47.95
2018-02-08T23:32:51.770Z,48.27
2018-02-08T23:35:20.216Z,48.36
2018-02-08T23:37:49.055Z,48.27
2018-02-08T23:40:17.505Z,47.60
2018-02-08T23:42:46.007Z,47.64
2018-02-08T23:45:14.489Z,48.12
2018-02-08T23:47:42.932Z,48.03
2018-02-08T23:50:11.851Z,48.13
2018-02-08T23:52:40.288Z,48.22
2018-02-08T23:55:08.815Z,48.56
2018-02-08T23:57:37.274Z,48.44
